Time;durP1;ratioP1;P1;durP2;ratioP2;P2;SDS_P1;SDS_P2;PMS_P1;PMS_P2;Temp;Humidity;BMP_temperature;BMP_pressure;BME280_temperature;BME280_humidity;BME280_pressure;Samples;Min_cycle;Max_cycle;Signal;HPM_P1;HPM_P2
2023/12/06 00:03:01;;;;;;;55.93;22.13;;;;;;;;;;6204031;23;20172;-89
2023/12/06 00:06:07;;;;;;;64.93;24.87;;;;;;;;;;6203848;23;20172;-89
2023/12/06 00:09:12;;;;;;;55.70;21.13;;;;;;;;;;6201936;23;20164;-91
2023/12/06 00:12:18;;;;;;;60.77;22.60;;;;;;;;;;6200667;23;20203;-89
2023/12/06 00:15:23;;;;;;;61.57;24.30;;;;;;;;;;6200954;23;20237;-92
2023/12/06 00:18:30;;;;;;;61.67;23.20;;;;;;;;;;6201158;23;20608;-89
2023/12/06 00:24:55;;;;;;;57.93;23.57;;;;;;;;;;6200768;23;20155;-90
2023/12/06 00:28:01;;;;;;;66.13;23.57;;;;;;;;;;6202340;23;20554;-91
2023/12/06 00:31:06;;;;;;;62.37;23.13;;;;;;;;;;6203160;23;20172;-89
2023/12/06 00:34:23;;;;;;;57.43;21.83;;;;;;;;;;6206350;23;20199;-91
2023/12/06 00:37:29;;;;;;;52.53;22.23;;;;;;;;;;6200551;23;20303;-88
2023/12/06 00:40:35;;;;;;;50.03;21.70;;;;;;;;;;6200526;23;20167;-90
2023/12/06 00:43:43;;;;;;;52.53;21.67;;;;;;;;;;6200443;23;20188;-91
2023/12/06 00:46:49;;;;;;;47.97;18.60;;;;;;;;;;6201388;23;20164;-88
2023/12/06 00:49:55;;;;;;;57.47;23.10;;;;;;;;;;6200568;23;20611;-89
2023/12/06 00:53:00;;;;;;;50.03;19.60;;;;;;;;;;6200922;23;20160;-89
2023/12/06 00:56:12;;;;;;;63.70;24.60;;;;;;;;;;6202521;23;20151;-91
2023/12/06 00:59:17;;;;;;;59.93;23.40;;;;;;;;;;6203702;23;20216;-90
2023/12/06 01:02:23;;;;;;;53.70;21.60;;;;;;;;;;6204101;23;20240;-88
2023/12/06 01:05:30;;;;;;;53.50;21.13;;;;;;;;;;6204952;23;20169;-91
2023/12/06 01:08:38;;;;;;;53.50;23.07;;;;;;;;;;6205671;23;20211;-91
2023/12/06 01:11:44;;;;;;;53.20;20.87;;;;;;;;;;6203948;23;20184;-90
2023/12/06 01:14:50;;;;;;;55.80;21.67;;;;;;;;;;6204557;23;20187;-90
2023/12/06 01:17:55;;;;;;;55.03;22.30;;;;;;;;;;6202531;23;20167;-91
2023/12/06 01:21:04;;;;;;;56.00;21.93;;;;;;;;;;6204364;23;20192;-90
2023/12/06 01:24:09;;;;;;;65.70;23.97;;;;;;;;;;6204390;23;20152;-90
2023/12/06 01:27:14;;;;;;;59.87;24.90;;;;;;;;;;6203306;23;20164;-93
2023/12/06 01:30:20;;;;;;;61.20;24.40;;;;;;;;;;6203017;23;20286;-90
2023/12/06 01:33:26;;;;;;;53.90;22.47;;;;;;;;;;6199799;23;20190;-89
2023/12/06 01:36:34;;;;;;;55.77;22.93;;;;;;;;;;6201664;23;20168;-89
2023/12/06 01:39:39;;;;;;;62.43;24.23;;;;;;;;;;6202140;23;20219;-91
2023/12/06 01:42:46;;;;;;;57.30;22.97;;;;;;;;;;6201430;23;20171;-90
2023/12/06 01:45:52;;;;;;;58.40;23.93;;;;;;;;;;6202481;23;20167;-90
2023/12/06 01:48:58;;;;;;;58.40;24.77;;;;;;;;;;6200495;23;20171;-90
2023/12/06 01:52:06;;;;;;;60.40;24.93;;;;;;;;;;6202104;23;20167;-91
2023/12/06 01:55:12;;;;;;;59.57;22.70;;;;;;;;;;6199949;23;20274;-89
2023/12/06 01:58:18;;;;;;;55.40;22.50;;;;;;;;;;6201919;23;20168;-90
2023/12/06 02:01:23;;;;;;;63.10;24.63;;;;;;;;;;6201810;23;20199;-89
2023/12/06 02:04:29;;;;;;;53.57;22.47;;;;;;;;;;6199623;23;20250;-90
2023/12/06 02:07:36;;;;;;;54.17;23.07;;;;;;;;;;6200251;23;20163;-92
2023/12/06 02:10:41;;;;;;;55.97;22.90;;;;;;;;;;6202463;23;20176;-89
2023/12/06 02:13:47;;;;;;;55.53;22.40;;;;;;;;;;6203576;23;20192;-90
2023/12/06 02:16:53;;;;;;;53.03;21.47;;;;;;;;;;6201357;23;20245;-89
2023/12/06 02:20:00;;;;;;;51.70;22.17;;;;;;;;;;6201498;23;20253;-91
2023/12/06 02:23:08;;;;;;;54.63;22.77;;;;;;;;;;6201834;23;20163;-91
2023/12/06 02:26:14;;;;;;;60.93;24.10;;;;;;;;;;6200649;23;20172;-91
2023/12/06 02:29:20;;;;;;;60.07;24.03;;;;;;;;;;6200997;23;20156;-91
2023/12/06 02:32:25;;;;;;;58.37;24.60;;;;;;;;;;6201130;23;20167;-92
2023/12/06 02:35:32;;;;;;;61.93;24.60;;;;;;;;;;6202775;23;20242;-89
2023/12/06 02:38:37;;;;;;;62.93;25.13;;;;;;;;;;6202196;23;20166;-91
2023/12/06 02:41:44;;;;;;;60.27;24.57;;;;;;;;;;6202555;23;20175;-91
2023/12/06 02:44:49;;;;;;;59.67;24.47;;;;;;;;;;6201270;23;20227;-91
2023/12/06 02:47:55;;;;;;;62.87;25.30;;;;;;;;;;6199370;23;20164;-90
2023/12/06 02:51:00;;;;;;;63.03;26.73;;;;;;;;;;6199609;23;20155;-90
2023/12/06 02:54:05;;;;;;;63.77;25.63;;;;;;;;;;6200577;23;20239;-91
2023/12/06 02:57:11;;;;;;;62.93;26.10;;;;;;;;;;6200414;23;20167;-90
2023/12/06 03:00:17;;;;;;;56.23;23.80;;;;;;;;;;6200452;23;20262;-90
2023/12/06 03:03:22;;;;;;;55.67;23.73;;;;;;;;;;6198581;23;20503;-90
2023/12/06 03:06:27;;;;;;;60.40;25.20;;;;;;;;;;6199042;23;20237;-92
2023/12/06 03:09:32;;;;;;;62.50;24.07;;;;;;;;;;6199930;23;20203;-90
2023/12/06 03:12:39;;;;;;;52.37;22.80;;;;;;;;;;6200437;23;20199;-90
2023/12/06 03:15:44;;;;;;;57.80;24.63;;;;;;;;;;6200336;23;20195;-90
2023/12/06 03:18:51;;;;;;;58.50;24.37;;;;;;;;;;6201969;23;20662;-92
2023/12/06 03:21:56;;;;;;;62.97;25.93;;;;;;;;;;6198684;23;20171;-90
2023/12/06 03:25:01;;;;;;;65.33;24.83;;;;;;;;;;6200331;23;20172;-92
2023/12/06 03:28:08;;;;;;;57.27;23.70;;;;;;;;;;6201758;23;20167;-90
2023/12/06 03:31:13;;;;;;;61.30;24.73;;;;;;;;;;6199555;23;20255;-90
2023/12/06 03:34:18;;;;;;;57.07;23.87;;;;;;;;;;6199585;23;20223;-89
2023/12/06 03:37:23;;;;;;;59.37;24.63;;;;;;;;;;6199252;23;20243;-92
2023/12/06 03:40:28;;;;;;;59.63;24.80;;;;;;;;;;6199455;23;20167;-92
2023/12/06 03:43:35;;;;;;;63.60;25.47;;;;;;;;;;6198909;23;20619;-91
2023/12/06 03:46:40;;;;;;;59.40;24.83;;;;;;;;;;6198756;23;20295;-91
2023/12/06 03:49:46;;;;;;;63.87;25.90;;;;;;;;;;6199586;23;20192;-91
2023/12/06 03:52:51;;;;;;;60.20;24.37;;;;;;;;;;6199171;23;20167;-91
2023/12/06 03:55:56;;;;;;;59.47;25.17;;;;;;;;;;6201480;23;20180;-92
2023/12/06 03:59:04;;;;;;;60.43;25.33;;;;;;;;;;6201129;23;20176;-92
2023/12/06 04:02:09;;;;;;;62.33;25.40;;;;;;;;;;6198419;23;20262;-90
2023/12/06 04:05:14;;;;;;;67.53;26.40;;;;;;;;;;6198007;23;20168;-90
2023/12/06 04:08:19;;;;;;;62.33;25.53;;;;;;;;;;6197437;23;20175;-91
2023/12/06 04:11:24;;;;;;;71.40;28.23;;;;;;;;;;6199397;23;20187;-91
2023/12/06 04:14:31;;;;;;;71.17;28.47;;;;;;;;;;6198910;23;20702;-92
2023/12/06 04:17:36;;;;;;;69.90;27.73;;;;;;;;;;6198385;23;20176;-91
2023/12/06 04:20:41;;;;;;;71.83;27.70;;;;;;;;;;6199467;23;20256;-89
2023/12/06 04:23:48;;;;;;;70.40;26.73;;;;;;;;;;6199475;23;20572;-90
2023/12/06 04:26:52;;;;;;;71.13;28.23;;;;;;;;;;6200207;23;20156;-89
2023/12/06 04:29:59;;;;;;;81.33;30.83;;;;;;;;;;6200325;23;20216;-89
2023/12/06 04:33:04;;;;;;;84.77;31.17;;;;;;;;;;6201478;23;20155;-91
2023/12/06 04:36:13;;;;;;;84.00;30.47;;;;;;;;;;6197828;23;20319;-91
2023/12/06 04:39:18;;;;;;;73.63;28.90;;;;;;;;;;6199237;23;20167;-91
2023/12/06 04:42:23;;;;;;;64.97;26.40;;;;;;;;;;6197105;23;20156;-91
2023/12/06 04:45:30;;;;;;;68.93;27.83;;;;;;;;;;6196362;23;20168;-92
2023/12/06 04:48:38;;;;;;;70.70;27.60;;;;;;;;;;6197043;23;20247;-91
2023/12/06 04:51:44;;;;;;;79.63;29.83;;;;;;;;;;6198039;23;20168;-91
2023/12/06 04:54:49;;;;;;;67.30;27.83;;;;;;;;;;6197124;23;20369;-91
2023/12/06 04:57:54;;;;;;;69.97;28.90;;;;;;;;;;6199454;23;20167;-90
2023/12/06 05:01:00;;;;;;;78.90;28.97;;;;;;;;;;6200116;23;20266;-90
2023/12/06 05:04:05;;;;;;;79.37;30.03;;;;;;;;;;6201491;23;20171;-91
2023/12/06 05:07:10;;;;;;;77.97;30.40;;;;;;;;;;6200161;23;20166;-91
2023/12/06 05:10:15;;;;;;;77.33;30.50;;;;;;;;;;6197727;23;20179;-90
2023/12/06 05:13:21;;;;;;;81.37;29.70;;;;;;;;;;6197190;23;20217;-92
2023/12/06 05:16:28;;;;;;;84.60;30.33;;;;;;;;;;6201600;23;20191;-91
2023/12/06 05:19:34;;;;;;;85.47;31.90;;;;;;;;;;6199951;23;20171;-91
2023/12/06 05:22:39;;;;;;;86.17;30.77;;;;;;;;;;6200723;23;20225;-92
2023/12/06 05:25:45;;;;;;;82.10;30.70;;;;;;;;;;6198072;23;20287;-90
2023/12/06 05:28:50;;;;;;;84.03;32.00;;;;;;;;;;6198475;23;20147;-92
2023/12/06 05:31:57;;;;;;;85.07;29.80;;;;;;;;;;6196996;23;20164;-89
2023/12/06 05:35:03;;;;;;;86.40;31.90;;;;;;;;;;6201468;23;20206;-90
2023/12/06 05:38:09;;;;;;;81.13;30.87;;;;;;;;;;6200543;23;20624;-92
2023/12/06 05:41:15;;;;;;;85.80;31.23;;;;;;;;;;6198077;23;20171;-89
2023/12/06 05:44:20;;;;;;;104.80;37.43;;;;;;;;;;6204634;23;20163;-90
2023/12/06 05:47:28;;;;;;;83.93;30.63;;;;;;;;;;6201600;23;20180;-89
2023/12/06 05:50:36;;;;;;;78.30;29.90;;;;;;;;;;6202668;23;20167;-89
2023/12/06 05:53:41;;;;;;;79.00;29.17;;;;;;;;;;6202423;23;20188;-89
2023/12/06 05:56:46;;;;;;;73.73;28.83;;;;;;;;;;6201247;23;20313;-92
2023/12/06 05:59:51;;;;;;;72.90;29.17;;;;;;;;;;6202503;23;20232;-91
2023/12/06 06:02:59;;;;;;;78.93;28.87;;;;;;;;;;6200275;23;20235;-89
2023/12/06 06:06:07;;;;;;;70.27;27.53;;;;;;;;;;6202189;23;20242;-92
2023/12/06 06:09:13;;;;;;;68.50;27.90;;;;;;;;;;6198799;23;20176;-90
2023/12/06 06:12:20;;;;;;;70.97;27.87;;;;;;;;;;6199810;23;20164;-91
2023/12/06 06:15:25;;;;;;;71.90;27.10;;;;;;;;;;6201772;23;20183;-90
2023/12/06 06:18:35;;;;;;;75.00;27.77;;;;;;;;;;6200145;23;20171;-91
2023/12/06 06:21:41;;;;;;;71.67;28.23;;;;;;;;;;6202027;23;20164;-92
2023/12/06 06:24:46;;;;;;;71.70;27.60;;;;;;;;;;6199034;23;20219;-93
2023/12/06 06:27:51;;;;;;;72.73;28.63;;;;;;;;;;6196895;23;20228;-91
2023/12/06 06:30:57;;;;;;;74.43;27.27;;;;;;;;;;6201170;23;20159;-91
2023/12/06 06:34:03;;;;;;;73.17;28.10;;;;;;;;;;6201415;23;20178;-89
2023/12/06 06:37:11;;;;;;;70.87;26.50;;;;;;;;;;6202463;23;20175;-92
2023/12/06 06:40:19;;;;;;;67.37;27.77;;;;;;;;;;6200956;23;20644;-92
2023/12/06 06:46:46;;;;;;;84.63;30.03;;;;;;;;;;6205574;23;20160;-91
2023/12/06 06:49:53;;;;;;;75.40;29.70;;;;;;;;;;6204854;23;20263;-91
2023/12/06 06:53:01;;;;;;;78.73;31.23;;;;;;;;;;6205322;23;20481;-90
2023/12/06 06:56:06;;;;;;;77.27;29.23;;;;;;;;;;6202031;23;20190;-89
2023/12/06 06:59:13;;;;;;;75.33;28.60;;;;;;;;;;6203356;23;20156;-89
2023/12/06 07:02:19;;;;;;;75.47;29.20;;;;;;;;;;6202960;23;20266;-89
2023/12/06 07:05:26;;;;;;;74.77;29.20;;;;;;;;;;6202663;23;20172;-90
2023/12/06 07:11:50;;;;;;;75.17;29.10;;;;;;;;;;6200981;23;20164;-89
2023/12/06 07:14:56;;;;;;;71.07;28.80;;;;;;;;;;6201514;23;20264;-89
2023/12/06 07:18:01;;;;;;;81.03;30.23;;;;;;;;;;6200761;23;20167;-90
2023/12/06 07:21:08;;;;;;;70.80;28.10;;;;;;;;;;6200679;23;20172;-89
2023/12/06 07:24:13;;;;;;;81.33;29.40;;;;;;;;;;6200724;23;20188;-89
2023/12/06 07:27:19;;;;;;;71.13;27.50;;;;;;;;;;6199474;23;20241;-91
2023/12/06 07:30:25;;;;;;;77.77;28.90;;;;;;;;;;6198753;23;20180;-89
2023/12/06 07:33:30;;;;;;;70.50;29.10;;;;;;;;;;6199715;23;20152;-92
2023/12/06 07:36:38;;;;;;;78.23;28.50;;;;;;;;;;6199347;23;20192;-91
2023/12/06 07:39:53;;;;;;;69.43;27.97;;;;;;;;;;6202971;23;20167;-90
2023/12/06 07:43:00;;;;;;;71.67;29.50;;;;;;;;;;6207579;23;20167;-90
2023/12/06 07:46:06;;;;;;;74.73;28.77;;;;;;;;;;6203982;23;20168;-92
2023/12/06 07:49:12;;;;;;;79.77;30.23;;;;;;;;;;6201192;23;20603;-92
2023/12/06 07:52:19;;;;;;;86.27;31.23;;;;;;;;;;6202855;23;20175;-92
2023/12/06 07:55:25;;;;;;;72.63;27.67;;;;;;;;;;6200750;23;20199;-91
2023/12/06 07:58:31;;;;;;;73.87;29.47;;;;;;;;;;6203955;23;20209;-90
2023/12/06 08:01:36;;;;;;;79.27;31.20;;;;;;;;;;6199446;23;20193;-90
2023/12/06 08:04:42;;;;;;;76.77;28.87;;;;;;;;;;6203239;23;20191;-90
2023/12/06 08:07:50;;;;;;;85.30;30.20;;;;;;;;;;6198305;23;20176;-91
2023/12/06 08:10:56;;;;;;;83.47;30.30;;;;;;;;;;6200378;23;20172;-90
2023/12/06 08:14:02;;;;;;;92.47;31.20;;;;;;;;;;6199488;23;20212;-91
2023/12/06 08:17:07;;;;;;;83.80;31.90;;;;;;;;;;6201021;23;20191;-91
2023/12/06 08:20:13;;;;;;;85.53;32.10;;;;;;;;;;6200195;23;20159;-89
2023/12/06 08:23:27;;;;;;;83.47;31.10;;;;;;;;;;6200082;23;20167;-90
2023/12/06 08:26:32;;;;;;;91.13;31.87;;;;;;;;;;6201327;23;20227;-89
2023/12/06 08:29:38;;;;;;;89.70;31.90;;;;;;;;;;6199939;23;20199;-90
2023/12/06 08:32:43;;;;;;;85.03;31.97;;;;;;;;;;6200456;23;20253;-89
2023/12/06 08:35:48;;;;;;;83.10;31.67;;;;;;;;;;6201709;23;20179;-90
2023/12/06 08:38:55;;;;;;;87.27;33.07;;;;;;;;;;6201918;23;20171;-92
2023/12/06 08:42:00;;;;;;;80.37;31.40;;;;;;;;;;6200463;23;20215;-93
2023/12/06 08:45:06;;;;;;;85.57;31.57;;;;;;;;;;6201460;23;20160;-91
2023/12/06 08:48:12;;;;;;;92.57;31.70;;;;;;;;;;6199846;23;20219;-89
2023/12/06 08:51:17;;;;;;;84.13;32.30;;;;;;;;;;6202805;23;20168;-90
2023/12/06 08:54:23;;;;;;;87.63;30.00;;;;;;;;;;6200728;23;20176;-91
2023/12/06 08:57:28;;;;;;;116.67;40.70;;;;;;;;;;6201478;23;20175;-90
2023/12/06 09:00:33;;;;;;;85.90;31.87;;;;;;;;;;6201547;23;20187;-91
2023/12/06 09:03:39;;;;;;;78.37;31.67;;;;;;;;;;6203265;23;20221;-90
2023/12/06 09:06:46;;;;;;;84.50;31.40;;;;;;;;;;6201816;23;20191;-90
2023/12/06 09:09:53;;;;;;;86.40;31.53;;;;;;;;;;6201818;23;20270;-91
2023/12/06 09:12:58;;;;;;;85.60;32.40;;;;;;;;;;6202244;23;20226;-93
2023/12/06 09:16:04;;;;;;;87.27;32.17;;;;;;;;;;6203030;23;20199;-93
2023/12/06 09:19:10;;;;;;;81.00;31.53;;;;;;;;;;6201766;23;20156;-91
2023/12/06 09:22:17;;;;;;;85.90;32.17;;;;;;;;;;6200108;23;20248;-90
2023/12/06 09:25:24;;;;;;;97.60;33.07;;;;;;;;;;6201908;23;20246;-91
2023/12/06 09:28:30;;;;;;;89.43;34.17;;;;;;;;;;6201785;23;20172;-91
2023/12/06 09:31:36;;;;;;;83.90;32.57;;;;;;;;;;6199008;23;20167;-90
2023/12/06 09:34:44;;;;;;;92.10;33.10;;;;;;;;;;6202015;23;20167;-91
2023/12/06 09:37:49;;;;;;;90.63;31.47;;;;;;;;;;6202017;23;20168;-89
2023/12/06 09:40:57;;;;;;;88.17;33.17;;;;;;;;;;6199407;23;20553;-91
2023/12/06 09:44:02;;;;;;;90.37;34.33;;;;;;;;;;6199934;23;20167;-92
2023/12/06 09:47:11;;;;;;;92.77;32.87;;;;;;;;;;6200253;23;20155;-90
2023/12/06 09:50:17;;;;;;;92.87;34.53;;;;;;;;;;6198955;23;20171;-90
2023/12/06 09:53:23;;;;;;;94.60;34.27;;;;;;;;;;6199590;23;20251;-90
2023/12/06 09:56:33;;;;;;;85.50;34.43;;;;;;;;;;6199328;23;20200;-91
2023/12/06 09:59:40;;;;;;;92.43;33.57;;;;;;;;;;6196900;23;20167;-91
2023/12/06 10:02:49;;;;;;;89.40;31.37;;;;;;;;;;6198809;23;20195;-92
2023/12/06 10:05:56;;;;;;;88.13;31.67;;;;;;;;;;6199736;23;20175;-90
2023/12/06 10:09:01;;;;;;;86.23;31.77;;;;;;;;;;6200487;23;20164;-90
2023/12/06 10:12:10;;;;;;;88.30;32.10;;;;;;;;;;6201018;23;20172;-91
2023/12/06 10:15:16;;;;;;;92.20;33.60;;;;;;;;;;6199368;23;20167;-90
2023/12/06 10:18:22;;;;;;;89.03;32.63;;;;;;;;;;6184511;23;20171;-91
2023/12/06 10:21:28;;;;;;;86.17;34.07;;;;;;;;;;6202189;23;20172;-92
2023/12/06 10:24:34;;;;;;;79.83;32.03;;;;;;;;;;6201164;23;20168;-91
2023/12/06 10:27:45;;;;;;;88.40;30.43;;;;;;;;;;6200463;23;20192;-91
2023/12/06 10:31:00;;;;;;;85.90;31.70;;;;;;;;;;6202804;23;20167;-90
2023/12/06 10:34:10;;;;;;;77.93;30.53;;;;;;;;;;6203621;23;20192;-92
2023/12/06 10:37:18;;;;;;;86.43;31.47;;;;;;;;;;6202895;23;20199;-88
2023/12/06 10:40:25;;;;;;;78.23;31.00;;;;;;;;;;6204607;23;20604;-91
2023/12/06 10:43:33;;;;;;;87.03;30.40;;;;;;;;;;6203236;23;20159;-92
2023/12/06 10:46:49;;;;;;;82.30;31.57;;;;;;;;;;6204213;23;20156;-92
2023/12/06 10:49:55;;;;;;;82.60;30.63;;;;;;;;;;6205825;23;20172;-93
2023/12/06 10:53:01;;;;;;;81.50;29.47;;;;;;;;;;6203817;23;20168;-93
2023/12/06 10:56:08;;;;;;;87.03;31.40;;;;;;;;;;6203966;23;20183;-92
2023/12/06 10:59:15;;;;;;;75.73;27.63;;;;;;;;;;6201072;23;20168;-91
2023/12/06 11:02:20;;;;;;;87.43;31.03;;;;;;;;;;6203004;23;20178;-90
2023/12/06 11:05:27;;;;;;;90.53;32.93;;;;;;;;;;6204930;23;20183;-93
2023/12/06 11:08:48;;;;;;;85.00;30.93;;;;;;;;;;6203578;23;20176;-92
2023/12/06 11:11:58;;;;;;;80.20;28.07;;;;;;;;;;6209209;23;20192;-93
2023/12/06 11:15:18;;;;;;;82.33;30.57;;;;;;;;;;6204508;23;20156;-92
2023/12/06 11:21:47;;;;;;;82.20;29.03;;;;;;;;;;6204748;23;20229;-90
2023/12/06 11:24:52;;;;;;;83.47;29.90;;;;;;;;;;6202764;23;20168;-93
2023/12/06 11:27:57;;;;;;;81.53;29.70;;;;;;;;;;6201431;23;20215;-90
2023/12/06 11:31:08;;;;;;;80.47;29.70;;;;;;;;;;6202867;23;20171;-89
2023/12/06 11:34:13;;;;;;;78.33;28.10;;;;;;;;;;6202974;23;20168;-88
2023/12/06 11:37:19;;;;;;;76.47;29.57;;;;;;;;;;6201313;23;20200;-91
2023/12/06 11:40:26;;;;;;;76.50;30.33;;;;;;;;;;6204850;23;20215;-90
2023/12/06 11:43:32;;;;;;;77.37;28.33;;;;;;;;;;6203773;23;20152;-89
2023/12/06 11:46:49;;;;;;;76.07;29.00;;;;;;;;;;6202623;23;20180;-93
2023/12/06 11:49:55;;;;;;;73.30;27.00;;;;;;;;;;6202584;23;20275;-91
2023/12/06 11:53:02;;;;;;;75.03;28.80;;;;;;;;;;6202651;23;20179;-91
2023/12/06 11:56:09;;;;;;;72.80;28.03;;;;;;;;;;6204904;23;20172;-92
2023/12/06 11:59:15;;;;;;;83.80;29.47;;;;;;;;;;6203360;23;20246;-92
2023/12/06 12:02:24;;;;;;;83.83;29.97;;;;;;;;;;6203164;23;20188;-90
2023/12/06 12:08:50;;;;;;;78.83;30.30;;;;;;;;;;6203128;23;20168;-90
2023/12/06 12:11:55;;;;;;;84.33;31.27;;;;;;;;;;6202025;23;20171;-91
2023/12/06 12:15:04;;;;;;;83.30;31.30;;;;;;;;;;6205427;23;20171;-89
2023/12/06 12:18:19;;;;;;;83.83;31.40;;;;;;;;;;6204939;23;20199;-91
2023/12/06 12:21:29;;;;;;;75.03;29.87;;;;;;;;;;6201333;23;20176;-94
2023/12/06 12:24:37;;;;;;;79.50;29.83;;;;;;;;;;6201055;23;20195;-89
2023/12/06 12:27:45;;;;;;;77.83;31.00;;;;;;;;;;6200607;23;20172;-91
2023/12/06 12:30:52;;;;;;;77.73;30.33;;;;;;;;;;6202216;23;20168;-90
2023/12/06 12:34:00;;;;;;;75.90;29.80;;;;;;;;;;6203972;23;20155;-92
2023/12/06 12:37:06;;;;;;;91.13;32.67;;;;;;;;;;6205041;23;20563;-91
2023/12/06 12:40:12;;;;;;;77.17;30.10;;;;;;;;;;6204853;23;20671;-93
2023/12/06 12:43:18;;;;;;;68.43;27.47;;;;;;;;;;6203156;23;20167;-92
2023/12/06 12:46:23;;;;;;;71.90;27.83;;;;;;;;;;6202805;23;20488;-93
2023/12/06 12:49:37;;;;;;;77.93;28.63;;;;;;;;;;6202182;23;20167;-93
2023/12/06 12:52:44;;;;;;;76.73;29.37;;;;;;;;;;6201922;23;20497;-93
2023/12/06 12:55:50;;;;;;;78.37;28.27;;;;;;;;;;6200508;23;20155;-90
2023/12/06 12:58:56;;;;;;;78.97;30.13;;;;;;;;;;6203554;23;20223;-92
2023/12/06 13:02:04;;;;;;;69.67;27.23;;;;;;;;;;6202760;23;20244;-92
2023/12/06 13:05:12;;;;;;;81.00;30.63;;;;;;;;;;6202379;23;20187;-92
2023/12/06 13:08:17;;;;;;;83.07;30.27;;;;;;;;;;6200132;23;20221;-92
2023/12/06 13:11:24;;;;;;;85.50;31.47;;;;;;;;;;6202892;23;20156;-90
2023/12/06 13:14:29;;;;;;;76.90;31.13;;;;;;;;;;6200711;23;20214;-91
2023/12/06 13:17:35;;;;;;;98.93;35.37;;;;;;;;;;6201036;23;20199;-89
2023/12/06 13:20:42;;;;;;;97.57;37.70;;;;;;;;;;6199856;23;20168;-93
2023/12/06 13:23:47;;;;;;;83.70;29.93;;;;;;;;;;6199793;23;20254;-90
2023/12/06 13:26:53;;;;;;;76.50;29.50;;;;;;;;;;6199688;23;20156;-92
2023/12/06 13:30:01;;;;;;;80.60;30.67;;;;;;;;;;6201771;23;20163;-93
2023/12/06 13:33:06;;;;;;;81.23;31.87;;;;;;;;;;6202707;23;20176;-92
2023/12/06 13:36:14;;;;;;;83.13;31.27;;;;;;;;;;6203408;23;20168;-94
2023/12/06 13:39:19;;;;;;;73.53;31.03;;;;;;;;;;6200985;23;20172;-90
2023/12/06 13:42:25;;;;;;;78.83;30.07;;;;;;;;;;6203745;23;20163;-93
2023/12/06 13:45:30;;;;;;;82.17;29.67;;;;;;;;;;6202916;23;20213;-92
2023/12/06 13:48:36;;;;;;;71.17;29.40;;;;;;;;;;6203518;23;20151;-91
2023/12/06 13:51:43;;;;;;;83.43;31.57;;;;;;;;;;6203211;23;20213;-93
2023/12/06 13:54:50;;;;;;;83.60;30.83;;;;;;;;;;6206553;23;20171;-90
2023/12/06 13:57:55;;;;;;;80.93;30.60;;;;;;;;;;6203791;23;20195;-93
2023/12/06 14:01:01;;;;;;;74.77;29.97;;;;;;;;;;6204611;23;20235;-94
2023/12/06 19:21:03;;;;;;;30.57;13.80;;;;;;;;;;6086633;23;20217;-90
2023/12/06 19:24:09;;;;;;;27.27;12.57;;;;;;;;;;6116408;23;20178;-93
2023/12/06 19:27:15;;;;;;;28.57;13.27;;;;;;;;;;6117807;23;20173;-90
2023/12/06 19:30:26;;;;;;;29.10;11.87;;;;;;;;;;6120225;23;20178;-90
2023/12/06 19:39:29;;;;;;;28.83;13.03;;;;;;;;;;6191406;23;20204;-92
2023/12/06 19:43:00;;;;;;;23.50;10.70;;;;;;;;;;6203486;23;20217;-91
2023/12/06 19:46:06;;;;;;;22.00;10.67;;;;;;;;;;6203129;23;20243;-92
2023/12/06 19:49:11;;;;;;;24.03;10.57;;;;;;;;;;6203750;23;20156;-92
2023/12/06 19:52:17;;;;;;;20.77;10.33;;;;;;;;;;6202128;23;20260;-90
2023/12/06 19:55:39;;;;;;;23.90;9.80;;;;;;;;;;6208321;23;20156;-92
2023/12/06 19:58:50;;;;;;;21.97;9.80;;;;;;;;;;6205710;23;20208;-90
2023/12/06 20:01:55;;;;;;;18.57;9.93;;;;;;;;;;6206927;23;20188;-91
2023/12/06 20:05:02;;;;;;;30.10;14.47;;;;;;;;;;6202487;23;20196;-92
2023/12/06 20:08:10;;;;;;;27.83;13.73;;;;;;;;;;6203859;23;20171;-90
2023/12/06 20:11:17;;;;;;;22.60;11.00;;;;;;;;;;6204539;23;20291;-93
2023/12/06 20:14:24;;;;;;;17.83;9.50;;;;;;;;;;6206546;23;20167;-92
2023/12/06 20:17:30;;;;;;;18.43;9.97;;;;;;;;;;6204433;23;20204;-92
2023/12/06 20:20:36;;;;;;;19.33;9.63;;;;;;;;;;6202674;23;20148;-92
2023/12/06 20:23:42;;;;;;;19.83;10.13;;;;;;;;;;6201370;23;20152;-92
2023/12/06 20:26:47;;;;;;;25.30;11.97;;;;;;;;;;6202075;23;20172;-91
2023/12/06 20:29:55;;;;;;;22.10;10.00;;;;;;;;;;6204356;23;20172;-92
2023/12/06 20:33:06;;;;;;;20.17;9.93;;;;;;;;;;6185245;23;20216;-91
2023/12/06 20:36:16;;;;;;;19.30;8.93;;;;;;;;;;6203416;23;20172;-92
2023/12/06 20:39:41;;;;;;;18.70;9.97;;;;;;;;;;6206067;23;20222;-91
2023/12/06 20:42:53;;;;;;;20.90;9.90;;;;;;;;;;6189832;23;20237;-92
2023/12/06 20:46:05;;;;;;;21.07;9.33;;;;;;;;;;6189402;23;20167;-92
2023/12/06 20:49:23;;;;;;;19.50;9.73;;;;;;;;;;6205275;23;20227;-93
2023/12/06 20:52:32;;;;;;;16.77;8.50;;;;;;;;;;6206036;23;20155;-92
2023/12/06 20:55:40;;;;;;;19.20;9.43;;;;;;;;;;6206228;23;20212;-93
2023/12/06 20:58:50;;;;;;;22.87;10.77;;;;;;;;;;6205439;23;20256;-92
2023/12/06 21:02:21;;;;;;;19.00;8.83;;;;;;;;;;6205486;23;20241;-92
2023/12/06 21:08:58;;;;;;;18.83;9.83;;;;;;;;;;6208596;23;20220;-92
2023/12/06 21:15:59;;;;;;;21.63;10.87;;;;;;;;;;6210445;23;20152;-94
2023/12/06 23:01:58;;;;;;;27.57;13.60;;;;;;;;;;6159780;23;20217;-92
2023/12/06 23:05:03;;;;;;;26.03;12.50;;;;;;;;;;6197207;23;20227;-91
2023/12/06 23:08:08;;;;;;;23.80;11.93;;;;;;;;;;6199645;23;20148;-91
2023/12/06 23:11:13;;;;;;;25.63;12.17;;;;;;;;;;6199233;23;20204;-92
2023/12/06 23:14:18;;;;;;;28.47;12.87;;;;;;;;;;6202607;23;20179;-90
2023/12/06 23:17:25;;;;;;;26.27;12.27;;;;;;;;;;6200591;23;20223;-91
2023/12/06 23:20:32;;;;;;;30.90;13.77;;;;;;;;;;6203744;23;20164;-92
2023/12/06 23:23:37;;;;;;;23.87;12.67;;;;;;;;;;6200586;23;20196;-92
2023/12/06 23:26:42;;;;;;;25.27;12.33;;;;;;;;;;6201093;23;20160;-90
2023/12/06 23:29:48;;;;;;;25.73;12.40;;;;;;;;;;6199815;23;20176;-91
2023/12/06 23:32:56;;;;;;;27.43;13.23;;;;;;;;;;6203676;23;20172;-92
2023/12/06 23:36:02;;;;;;;28.00;13.70;;;;;;;;;;6205226;23;20155;-92
2023/12/06 23:39:08;;;;;;;28.43;13.47;;;;;;;;;;6205880;23;20199;-91
2023/12/06 23:42:15;;;;;;;28.93;13.60;;;;;;;;;;6207086;23;20151;-91
2023/12/06 23:45:20;;;;;;;32.07;13.40;;;;;;;;;;6207814;23;20221;-92
2023/12/06 23:48:39;;;;;;;30.40;14.43;;;;;;;;;;6200177;23;21423;-90
2023/12/06 23:51:45;;;;;;;39.60;16.30;;;;;;;;;;6203320;23;20223;-93
2023/12/06 23:54:51;;;;;;;38.07;17.43;;;;;;;;;;6207972;23;20203;-92
2023/12/06 23:57:57;;;;;;;30.97;15.33;;;;;;;;;;6205457;23;20187;-92
